sensor_id;sensor_type;location;lat;lon;timestamp;temperature;humidity
21602;DHT22;10963;50.934;4.668;2023-11-18T00:00:43;7.20;99.90
21602;DHT22;10963;50.934;4.668;2023-11-18T00:03:09;7.20;99.90
21602;DHT22;10963;50.934;4.668;2023-11-18T00:05:38;7.20;99.90
21602;DHT22;10963;50.934;4.668;2023-11-18T00:08:04;7.20;99.90
21602;DHT22;10963;50.934;4.668;2023-11-18T00:10:32;7.20;99.90
21602;DHT22;10963;50.934;4.668;2023-11-18T00:13:00;7.30;99.90
21602;DHT22;10963;50.934;4.668;2023-11-18T00:15:29;7.30;99.90
21602;DHT22;10963;50.934;4.668;2023-11-18T00:17:55;7.30;99.90
21602;DHT22;10963;50.934;4.668;2023-11-18T00:20:20;7.30;99.90
21602;DHT22;10963;50.934;4.668;2023-11-18T00:22:52;7.30;99.90
21602;DHT22;10963;50.934;4.668;2023-11-18T00:25:18;7.30;99.90
21602;DHT22;10963;50.934;4.668;2023-11-18T00:27:48;7.20;99.90
21602;DHT22;10963;50.934;4.668;2023-11-18T00:30:14;7.20;99.90
21602;DHT22;10963;50.934;4.668;2023-11-18T00:32:40;7.30;99.90
21602;DHT22;10963;50.934;4.668;2023-11-18T00:35:06;7.20;99.90
21602;DHT22;10963;50.934;4.668;2023-11-18T00:37:33;7.20;99.90
21602;DHT22;10963;50.934;4.668;2023-11-18T00:40:01;7.20;99.90
21602;DHT22;10963;50.934;4.668;2023-11-18T00:42:29;7.30;99.90
21602;DHT22;10963;50.934;4.668;2023-11-18T00:44:55;7.20;99.90
21602;DHT22;10963;50.934;4.668;2023-11-18T00:47:25;7.10;99.90
21602;DHT22;10963;50.934;4.668;2023-11-18T00:49:51;7.10;99.90
21602;DHT22;10963;50.934;4.668;2023-11-18T00:52:22;7.00;99.90
21602;DHT22;10963;50.934;4.668;2023-11-18T00:54:50;7.00;99.90
21602;DHT22;10963;50.934;4.668;2023-11-18T00:57:18;6.90;99.90
21602;DHT22;10963;50.934;4.668;2023-11-18T00:59:46;6.90;99.90
21602;DHT22;10963;50.934;4.668;2023-11-18T01:02:11;7.00;99.90
21602;DHT22;10963;50.934;4.668;2023-11-18T01:04:37;7.00;99.90
21602;DHT22;10963;50.934;4.668;2023-11-18T01:07:03;6.90;99.90
21602;DHT22;10963;50.934;4.668;2023-11-18T01:09:28;7.00;99.90
21602;DHT22;10963;50.934;4.668;2023-11-18T01:11:54;7.10;99.90
21602;DHT22;10963;50.934;4.668;2023-11-18T01:14:20;7.10;99.90
21602;DHT22;10963;50.934;4.668;2023-11-18T01:16:48;7.10;99.90
21602;DHT22;10963;50.934;4.668;2023-11-18T01:19:14;7.10;99.90
21602;DHT22;10963;50.934;4.668;2023-11-18T01:21:42;7.10;99.90
21602;DHT22;10963;50.934;4.668;2023-11-18T01:24:08;7.10;99.90
21602;DHT22;10963;50.934;4.668;2023-11-18T01:26:34;7.20;99.90
21602;DHT22;10963;50.934;4.668;2023-11-18T01:28:59;7.20;99.90
21602;DHT22;10963;50.934;4.668;2023-11-18T01:31:25;7.10;99.90
21602;DHT22;10963;50.934;4.668;2023-11-18T01:33:51;7.20;99.90
21602;DHT22;10963;50.934;4.668;2023-11-18T01:36:20;7.30;99.90
21602;DHT22;10963;50.934;4.668;2023-11-18T01:38:48;7.20;99.90
21602;DHT22;10963;50.934;4.668;2023-11-18T01:41:16;7.20;99.90
21602;DHT22;10963;50.934;4.668;2023-11-18T01:43:45;7.20;99.90
21602;DHT22;10963;50.934;4.668;2023-11-18T01:46:14;7.20;99.90
21602;DHT22;10963;50.934;4.668;2023-11-18T01:48:44;7.20;99.90
21602;DHT22;10963;50.934;4.668;2023-11-18T01:51:10;7.20;99.90
21602;DHT22;10963;50.934;4.668;2023-11-18T01:53:40;7.20;99.90
21602;DHT22;10963;50.934;4.668;2023-11-18T01:56:07;7.20;99.90
21602;DHT22;10963;50.934;4.668;2023-11-18T01:58:37;7.10;99.90
21602;DHT22;10963;50.934;4.668;2023-11-18T02:01:03;7.20;99.90
21602;DHT22;10963;50.934;4.668;2023-11-18T02:03:34;7.20;99.90
21602;DHT22;10963;50.934;4.668;2023-11-18T02:06:04;7.20;99.90
21602;DHT22;10963;50.934;4.668;2023-11-18T02:08:34;7.10;99.90
21602;DHT22;10963;50.934;4.668;2023-11-18T02:13:58;7.10;99.90
21602;DHT22;10963;50.934;4.668;2023-11-18T02:16:30;7.10;99.90
21602;DHT22;10963;50.934;4.668;2023-11-18T02:19:00;7.10;99.90
21602;DHT22;10963;50.934;4.668;2023-11-18T02:21:27;7.20;99.90
21602;DHT22;10963;50.934;4.668;2023-11-18T02:23:55;7.20;99.90
21602;DHT22;10963;50.934;4.668;2023-11-18T02:26:24;7.20;99.90
21602;DHT22;10963;50.934;4.668;2023-11-18T02:28:53;7.20;99.90
21602;DHT22;10963;50.934;4.668;2023-11-18T02:31:30;7.30;99.90
21602;DHT22;10963;50.934;4.668;2023-11-18T02:34:02;7.40;99.90
21602;DHT22;10963;50.934;4.668;2023-11-18T02:36:35;7.30;99.90
21602;DHT22;10963;50.934;4.668;2023-11-18T02:39:11;7.30;99.90
21602;DHT22;10963;50.934;4.668;2023-11-18T02:41:42;7.30;99.90
21602;DHT22;10963;50.934;4.668;2023-11-18T02:44:11;7.30;99.90
21602;DHT22;10963;50.934;4.668;2023-11-18T02:46:43;7.30;99.90
21602;DHT22;10963;50.934;4.668;2023-11-18T02:49:11;7.30;99.90
21602;DHT22;10963;50.934;4.668;2023-11-18T02:51:40;7.40;99.90
21602;DHT22;10963;50.934;4.668;2023-11-18T02:54:11;7.40;99.90
21602;DHT22;10963;50.934;4.668;2023-11-18T02:56:42;7.50;99.90
21602;DHT22;10963;50.934;4.668;2023-11-18T02:59:07;7.50;99.90
21602;DHT22;10963;50.934;4.668;2023-11-18T03:01:34;7.50;99.90
21602;DHT22;10963;50.934;4.668;2023-11-18T03:04:02;7.40;99.90
21602;DHT22;10963;50.934;4.668;2023-11-18T03:06:28;7.40;99.90
21602;DHT22;10963;50.934;4.668;2023-11-18T03:08:54;7.30;99.90
21602;DHT22;10963;50.934;4.668;2023-11-18T03:11:20;7.40;99.90
21602;DHT22;10963;50.934;4.668;2023-11-18T03:13:45;7.40;99.90
21602;DHT22;10963;50.934;4.668;2023-11-18T03:16:11;7.40;99.90
21602;DHT22;10963;50.934;4.668;2023-11-18T03:18:42;7.30;99.90
21602;DHT22;10963;50.934;4.668;2023-11-18T03:21:12;7.30;99.90
21602;DHT22;10963;50.934;4.668;2023-11-18T03:23:39;7.40;99.90
21602;DHT22;10963;50.934;4.668;2023-11-18T03:26:06;7.40;99.90
21602;DHT22;10963;50.934;4.668;2023-11-18T03:28:33;7.30;99.90
21602;DHT22;10963;50.934;4.668;2023-11-18T03:31:01;7.30;99.90
21602;DHT22;10963;50.934;4.668;2023-11-18T03:33:27;7.30;99.90
21602;DHT22;10963;50.934;4.668;2023-11-18T03:35:53;7.20;99.90
21602;DHT22;10963;50.934;4.668;2023-11-18T03:38:23;7.20;99.90
21602;DHT22;10963;50.934;4.668;2023-11-18T03:40:53;7.20;99.90
21602;DHT22;10963;50.934;4.668;2023-11-18T03:43:19;7.30;99.90
21602;DHT22;10963;50.934;4.668;2023-11-18T03:45:45;7.40;99.90
21602;DHT22;10963;50.934;4.668;2023-11-18T03:48:13;7.40;99.90
21602;DHT22;10963;50.934;4.668;2023-11-18T03:50:40;7.40;99.90
21602;DHT22;10963;50.934;4.668;2023-11-18T03:53:08;7.40;99.90
21602;DHT22;10963;50.934;4.668;2023-11-18T03:55:34;7.40;99.90
21602;DHT22;10963;50.934;4.668;2023-11-18T03:58:02;7.50;99.90
21602;DHT22;10963;50.934;4.668;2023-11-18T04:00:28;7.50;99.90
21602;DHT22;10963;50.934;4.668;2023-11-18T04:02:58;7.60;99.90
21602;DHT22;10963;50.934;4.668;2023-11-18T04:05:24;7.60;99.90
21602;DHT22;10963;50.934;4.668;2023-11-18T04:07:52;7.60;99.90
21602;DHT22;10963;50.934;4.668;2023-11-18T04:10:20;7.60;99.90
21602;DHT22;10963;50.934;4.668;2023-11-18T04:12:50;7.50;99.90
21602;DHT22;10963;50.934;4.668;2023-11-18T04:15:18;7.40;99.90
21602;DHT22;10963;50.934;4.668;2023-11-18T04:17:43;7.40;99.90
21602;DHT22;10963;50.934;4.668;2023-11-18T04:20:10;7.40;99.90
21602;DHT22;10963;50.934;4.668;2023-11-18T04:22:47;7.40;99.90
21602;DHT22;10963;50.934;4.668;2023-11-18T04:25:15;7.40;99.90
21602;DHT22;10963;50.934;4.668;2023-11-18T04:27:43;7.50;99.90
21602;DHT22;10963;50.934;4.668;2023-11-18T04:30:09;7.50;99.90
21602;DHT22;10963;50.934;4.668;2023-11-18T04:32:37;7.40;99.90
21602;DHT22;10963;50.934;4.668;2023-11-18T04:35:03;7.40;99.90
21602;DHT22;10963;50.934;4.668;2023-11-18T04:37:33;7.40;99.90
21602;DHT22;10963;50.934;4.668;2023-11-18T04:40:00;7.30;99.90
21602;DHT22;10963;50.934;4.668;2023-11-18T04:42:28;7.30;99.90
21602;DHT22;10963;50.934;4.668;2023-11-18T04:45:00;7.30;99.90
21602;DHT22;10963;50.934;4.668;2023-11-18T04:47:26;7.30;99.90
21602;DHT22;10963;50.934;4.668;2023-11-18T04:49:52;7.50;99.90
21602;DHT22;10963;50.934;4.668;2023-11-18T04:52:22;7.50;99.90
21602;DHT22;10963;50.934;4.668;2023-11-18T04:54:48;7.50;99.90
21602;DHT22;10963;50.934;4.668;2023-11-18T04:57:16;7.60;99.90
21602;DHT22;10963;50.934;4.668;2023-11-18T04:59:42;7.50;99.90
21602;DHT22;10963;50.934;4.668;2023-11-18T05:02:14;7.50;99.90
21602;DHT22;10963;50.934;4.668;2023-11-18T05:04:39;7.60;99.90
21602;DHT22;10963;50.934;4.668;2023-11-18T05:07:06;7.60;99.90
21602;DHT22;10963;50.934;4.668;2023-11-18T05:09:32;7.60;99.90
21602;DHT22;10963;50.934;4.668;2023-11-18T05:12:00;7.70;99.90
21602;DHT22;10963;50.934;4.668;2023-11-18T05:14:31;7.80;99.90
21602;DHT22;10963;50.934;4.668;2023-11-18T05:16:59;7.80;99.90
21602;DHT22;10963;50.934;4.668;2023-11-18T05:19:24;7.90;99.90
21602;DHT22;10963;50.934;4.668;2023-11-18T05:21:51;7.70;99.90
21602;DHT22;10963;50.934;4.668;2023-11-18T05:24:19;7.80;99.90
21602;DHT22;10963;50.934;4.668;2023-11-18T05:26:45;7.90;99.90
21602;DHT22;10963;50.934;4.668;2023-11-18T05:29:10;7.90;99.90
21602;DHT22;10963;50.934;4.668;2023-11-18T05:31:44;7.80;99.90
21602;DHT22;10963;50.934;4.668;2023-11-18T05:34:13;7.70;99.90
21602;DHT22;10963;50.934;4.668;2023-11-18T05:36:38;7.60;99.90
21602;DHT22;10963;50.934;4.668;2023-11-18T05:39:06;7.60;99.90
21602;DHT22;10963;50.934;4.668;2023-11-18T05:41:33;7.60;99.90
21602;DHT22;10963;50.934;4.668;2023-11-18T05:44:00;7.60;99.90
21602;DHT22;10963;50.934;4.668;2023-11-18T05:46:29;7.60;99.90
21602;DHT22;10963;50.934;4.668;2023-11-18T05:49:02;7.70;99.90
21602;DHT22;10963;50.934;4.668;2023-11-18T05:51:35;7.80;99.90
21602;DHT22;10963;50.934;4.668;2023-11-18T05:54:00;7.80;99.90
21602;DHT22;10963;50.934;4.668;2023-11-18T05:56:26;7.80;99.90
21602;DHT22;10963;50.934;4.668;2023-11-18T05:58:54;7.80;99.90
21602;DHT22;10963;50.934;4.668;2023-11-18T06:01:23;7.90;99.90
21602;DHT22;10963;50.934;4.668;2023-11-18T06:03:51;7.90;99.90
21602;DHT22;10963;50.934;4.668;2023-11-18T06:06:17;8.00;99.90
21602;DHT22;10963;50.934;4.668;2023-11-18T06:08:47;8.00;99.90
21602;DHT22;10963;50.934;4.668;2023-11-18T06:11:14;8.10;99.90
21602;DHT22;10963;50.934;4.668;2023-11-18T06:18:41;8.10;99.90
21602;DHT22;10963;50.934;4.668;2023-11-18T06:21:17;8.10;99.90
21602;DHT22;10963;50.934;4.668;2023-11-18T06:23:45;8.20;99.90
21602;DHT22;10963;50.934;4.668;2023-11-18T06:26:16;8.30;99.90
21602;DHT22;10963;50.934;4.668;2023-11-18T06:28:45;8.30;99.90
21602;DHT22;10963;50.934;4.668;2023-11-18T06:31:13;8.20;99.90
21602;DHT22;10963;50.934;4.668;2023-11-18T06:33:43;8.20;99.90
21602;DHT22;10963;50.934;4.668;2023-11-18T06:38:42;8.30;99.90
21602;DHT22;10963;50.934;4.668;2023-11-18T06:41:16;8.30;99.90
21602;DHT22;10963;50.934;4.668;2023-11-18T06:43:45;8.40;99.90
21602;DHT22;10963;50.934;4.668;2023-11-18T06:48:50;8.40;99.90
21602;DHT22;10963;50.934;4.668;2023-11-18T06:51:22;8.50;99.90
21602;DHT22;10963;50.934;4.668;2023-11-18T06:53:54;8.50;99.90
21602;DHT22;10963;50.934;4.668;2023-11-18T06:56:26;8.50;99.90
21602;DHT22;10963;50.934;4.668;2023-11-18T06:58:58;8.40;99.90
21602;DHT22;10963;50.934;4.668;2023-11-18T07:01:23;8.40;99.90
21602;DHT22;10963;50.934;4.668;2023-11-18T07:03:49;8.30;99.90
21602;DHT22;10963;50.934;4.668;2023-11-18T07:06:19;8.30;99.90
21602;DHT22;10963;50.934;4.668;2023-11-18T07:08:51;8.40;99.90
21602;DHT22;10963;50.934;4.668;2023-11-18T07:11:19;8.40;99.90
21602;DHT22;10963;50.934;4.668;2023-11-18T07:13:48;8.60;99.90
21602;DHT22;10963;50.934;4.668;2023-11-18T07:16:23;8.50;99.90
21602;DHT22;10963;50.934;4.668;2023-11-18T07:18:51;8.50;99.90
21602;DHT22;10963;50.934;4.668;2023-11-18T07:21:17;8.80;99.90
21602;DHT22;10963;50.934;4.668;2023-11-18T07:23:43;8.70;99.90
21602;DHT22;10963;50.934;4.668;2023-11-18T07:26:09;8.70;99.90
21602;DHT22;10963;50.934;4.668;2023-11-18T07:28:36;8.70;99.90
21602;DHT22;10963;50.934;4.668;2023-11-18T07:31:02;8.70;99.90
21602;DHT22;10963;50.934;4.668;2023-11-18T07:33:30;8.60;99.90
21602;DHT22;10963;50.934;4.668;2023-11-18T07:35:59;8.50;99.90
21602;DHT22;10963;50.934;4.668;2023-11-18T07:38:25;8.50;99.90
21602;DHT22;10963;50.934;4.668;2023-11-18T07:40:55;8.60;99.90
21602;DHT22;10963;50.934;4.668;2023-11-18T07:43:24;8.60;99.90
21602;DHT22;10963;50.934;4.668;2023-11-18T07:45:54;8.70;99.90
21602;DHT22;10963;50.934;4.668;2023-11-18T07:48:21;8.70;99.90
21602;DHT22;10963;50.934;4.668;2023-11-18T07:50:51;8.70;99.90
21602;DHT22;10963;50.934;4.668;2023-11-18T07:53:17;8.80;99.90
21602;DHT22;10963;50.934;4.668;2023-11-18T07:55:43;8.70;99.90
21602;DHT22;10963;50.934;4.668;2023-11-18T07:58:10;8.60;99.90
21602;DHT22;10963;50.934;4.668;2023-11-18T08:00:45;8.70;99.90
21602;DHT22;10963;50.934;4.668;2023-11-18T08:03:13;8.60;99.90
21602;DHT22;10963;50.934;4.668;2023-11-18T08:05:43;8.70;99.90
21602;DHT22;10963;50.934;4.668;2023-11-18T08:08:09;8.70;99.90
21602;DHT22;10963;50.934;4.668;2023-11-18T08:10:37;8.70;99.90
21602;DHT22;10963;50.934;4.668;2023-11-18T08:13:10;8.60;99.90
21602;DHT22;10963;50.934;4.668;2023-11-18T08:15:42;8.60;99.90
21602;DHT22;10963;50.934;4.668;2023-11-18T08:18:13;8.60;99.90
21602;DHT22;10963;50.934;4.668;2023-11-18T08:20:39;8.60;99.90
21602;DHT22;10963;50.934;4.668;2023-11-18T08:23:09;8.60;99.90
21602;DHT22;10963;50.934;4.668;2023-11-18T08:25:35;8.50;99.90
21602;DHT22;10963;50.934;4.668;2023-11-18T08:28:02;8.50;99.90
21602;DHT22;10963;50.934;4.668;2023-11-18T08:30:31;8.50;99.90
21602;DHT22;10963;50.934;4.668;2023-11-18T08:33:02;8.50;99.90
21602;DHT22;10963;50.934;4.668;2023-11-18T08:35:30;8.40;99.90
21602;DHT22;10963;50.934;4.668;2023-11-18T08:37:56;8.40;99.90
21602;DHT22;10963;50.934;4.668;2023-11-18T08:40:22;8.40;99.90
21602;DHT22;10963;50.934;4.668;2023-11-18T08:42:49;8.40;99.90
21602;DHT22;10963;50.934;4.668;2023-11-18T08:45:28;8.50;99.90
21602;DHT22;10963;50.934;4.668;2023-11-18T08:48:00;8.50;99.90
21602;DHT22;10963;50.934;4.668;2023-11-18T08:50:29;8.50;99.90
21602;DHT22;10963;50.934;4.668;2023-11-18T08:52:56;8.50;99.90
21602;DHT22;10963;50.934;4.668;2023-11-18T08:55:29;8.50;99.90
21602;DHT22;10963;50.934;4.668;2023-11-18T08:58:08;8.50;99.90
21602;DHT22;10963;50.934;4.668;2023-11-18T09:00:57;8.60;99.90
21602;DHT22;10963;50.934;4.668;2023-11-18T09:03:39;8.70;99.90
21602;DHT22;10963;50.934;4.668;2023-11-18T09:06:19;8.70;99.90
21602;DHT22;10963;50.934;4.668;2023-11-18T09:08:53;8.70;99.90
21602;DHT22;10963;50.934;4.668;2023-11-18T09:11:23;8.70;99.90
21602;DHT22;10963;50.934;4.668;2023-11-18T09:13:54;8.80;99.90
21602;DHT22;10963;50.934;4.668;2023-11-18T09:16:23;8.80;99.90
21602;DHT22;10963;50.934;4.668;2023-11-18T09:18:51;8.70;99.90
21602;DHT22;10963;50.934;4.668;2023-11-18T09:21:17;8.70;99.90
21602;DHT22;10963;50.934;4.668;2023-11-18T09:23:51;8.70;99.90
21602;DHT22;10963;50.934;4.668;2023-11-18T09:26:17;8.70;99.90
21602;DHT22;10963;50.934;4.668;2023-11-18T09:28:43;8.80;99.90
21602;DHT22;10963;50.934;4.668;2023-11-18T09:31:18;8.80;99.90
21602;DHT22;10963;50.934;4.668;2023-11-18T09:33:46;8.80;99.90
21602;DHT22;10963;50.934;4.668;2023-11-18T09:36:18;8.90;99.90
21602;DHT22;10963;50.934;4.668;2023-11-18T09:38:45;9.00;99.90
21602;DHT22;10963;50.934;4.668;2023-11-18T09:41:15;8.80;99.90
21602;DHT22;10963;50.934;4.668;2023-11-18T09:43:45;8.80;99.90
21602;DHT22;10963;50.934;4.668;2023-11-18T09:46:15;8.80;99.90
21602;DHT22;10963;50.934;4.668;2023-11-18T09:51:48;8.70;99.90
21602;DHT22;10963;50.934;4.668;2023-11-18T09:56:56;8.80;99.90
21602;DHT22;10963;50.934;4.668;2023-11-18T10:01:57;8.90;99.90
21602;DHT22;10963;50.934;4.668;2023-11-18T10:04:24;8.90;99.90
21602;DHT22;10963;50.934;4.668;2023-11-18T10:06:53;8.80;99.90
21602;DHT22;10963;50.934;4.668;2023-11-18T10:09:27;8.90;99.90
21602;DHT22;10963;50.934;4.668;2023-11-18T10:12:18;8.90;99.90
21602;DHT22;10963;50.934;4.668;2023-11-18T10:14:53;8.90;99.90
21602;DHT22;10963;50.934;4.668;2023-11-18T10:17:22;8.90;99.90
21602;DHT22;10963;50.934;4.668;2023-11-18T10:22:26;9.00;99.90
21602;DHT22;10963;50.934;4.668;2023-11-18T10:24:53;9.00;99.90
21602;DHT22;10963;50.934;4.668;2023-11-18T10:27:26;8.90;99.90
21602;DHT22;10963;50.934;4.668;2023-11-18T10:30:05;8.80;99.90
21602;DHT22;10963;50.934;4.668;2023-11-18T10:32:55;8.80;99.90
21602;DHT22;10963;50.934;4.668;2023-11-18T10:35:23;8.80;99.90
21602;DHT22;10963;50.934;4.668;2023-11-18T10:37:51;8.80;99.90
21602;DHT22;10963;50.934;4.668;2023-11-18T10:40:16;8.90;99.90
21602;DHT22;10963;50.934;4.668;2023-11-18T10:42:42;8.90;99.90
21602;DHT22;10963;50.934;4.668;2023-11-18T10:45:25;8.90;99.90
21602;DHT22;10963;50.934;4.668;2023-11-18T10:47:54;9.00;99.90
21602;DHT22;10963;50.934;4.668;2023-11-18T10:50:30;9.00;99.90
21602;DHT22;10963;50.934;4.668;2023-11-18T10:53:00;9.00;99.90
21602;DHT22;10963;50.934;4.668;2023-11-18T10:55:39;9.10;99.90
21602;DHT22;10963;50.934;4.668;2023-11-18T10:58:07;9.10;99.90
21602;DHT22;10963;50.934;4.668;2023-11-18T11:00:52;9.20;99.90
21602;DHT22;10963;50.934;4.668;2023-11-18T11:03:21;9.20;99.90
21602;DHT22;10963;50.934;4.668;2023-11-18T11:05:53;9.10;99.90
21602;DHT22;10963;50.934;4.668;2023-11-18T11:08:24;9.10;99.90
21602;DHT22;10963;50.934;4.668;2023-11-18T11:10:53;9.00;99.90
21602;DHT22;10963;50.934;4.668;2023-11-18T11:13:20;9.00;99.90
21602;DHT22;10963;50.934;4.668;2023-11-18T11:15:48;9.00;99.90
21602;DHT22;10963;50.934;4.668;2023-11-18T11:18:21;9.10;99.90
21602;DHT22;10963;50.934;4.668;2023-11-18T11:21:15;9.20;99.90
21602;DHT22;10963;50.934;4.668;2023-11-18T11:24:04;9.00;99.90
21602;DHT22;10963;50.934;4.668;2023-11-18T11:26:37;9.00;99.90
21602;DHT22;10963;50.934;4.668;2023-11-18T11:29:20;9.00;99.90
21602;DHT22;10963;50.934;4.668;2023-11-18T11:32:02;9.00;99.90
21602;DHT22;10963;50.934;4.668;2023-11-18T11:34:32;9.00;99.90
21602;DHT22;10963;50.934;4.668;2023-11-18T11:37:00;9.00;99.90
21602;DHT22;10963;50.934;4.668;2023-11-18T11:39:27;8.90;99.90
21602;DHT22;10963;50.934;4.668;2023-11-18T11:41:59;9.00;99.90
21602;DHT22;10963;50.934;4.668;2023-11-18T11:44:27;9.00;99.90
21602;DHT22;10963;50.934;4.668;2023-11-18T11:46:58;9.00;99.90
21602;DHT22;10963;50.934;4.668;2023-11-18T11:49:27;9.00;99.90
21602;DHT22;10963;50.934;4.668;2023-11-18T11:54:25;9.00;99.90
21602;DHT22;10963;50.934;4.668;2023-11-18T11:56:56;9.00;99.90
21602;DHT22;10963;50.934;4.668;2023-11-18T12:02:15;9.10;99.90
21602;DHT22;10963;50.934;4.668;2023-11-18T12:04:53;9.20;99.90
21602;DHT22;10963;50.934;4.668;2023-11-18T12:07:23;9.20;99.90
21602;DHT22;10963;50.934;4.668;2023-11-18T12:09:58;9.20;99.90
21602;DHT22;10963;50.934;4.668;2023-11-18T12:12:25;9.20;99.90
21602;DHT22;10963;50.934;4.668;2023-11-18T12:15:01;9.10;99.90
21602;DHT22;10963;50.934;4.668;2023-11-18T12:20:40;9.20;99.90
21602;DHT22;10963;50.934;4.668;2023-11-18T12:23:27;9.30;99.90
21602;DHT22;10963;50.934;4.668;2023-11-18T12:25:56;9.40;99.90
21602;DHT22;10963;50.934;4.668;2023-11-18T12:28:32;9.30;99.90
21602;DHT22;10963;50.934;4.668;2023-11-18T12:31:04;9.30;99.90
21602;DHT22;10963;50.934;4.668;2023-11-18T12:42:02;9.40;99.90
21602;DHT22;10963;50.934;4.668;2023-11-18T12:47:06;9.40;99.90
21602;DHT22;10963;50.934;4.668;2023-11-18T12:49:40;9.40;99.90
21602;DHT22;10963;50.934;4.668;2023-11-18T12:52:08;9.40;99.90
21602;DHT22;10963;50.934;4.668;2023-11-18T12:54:34;9.40;99.90
21602;DHT22;10963;50.934;4.668;2023-11-18T12:57:05;9.40;99.90
21602;DHT22;10963;50.934;4.668;2023-11-18T12:59:37;9.40;99.90
21602;DHT22;10963;50.934;4.668;2023-11-18T13:02:13;9.50;99.90
21602;DHT22;10963;50.934;4.668;2023-11-18T13:04:46;9.50;99.90
21602;DHT22;10963;50.934;4.668;2023-11-18T13:07:15;9.60;99.90
21602;DHT22;10963;50.934;4.668;2023-11-18T13:09:45;9.60;99.90
21602;DHT22;10963;50.934;4.668;2023-11-18T13:12:12;9.60;99.90
21602;DHT22;10963;50.934;4.668;2023-11-18T13:14:41;9.70;99.90
21602;DHT22;10963;50.934;4.668;2023-11-18T13:17:15;9.70;99.90
21602;DHT22;10963;50.934;4.668;2023-11-18T13:19:44;9.70;99.90
21602;DHT22;10963;50.934;4.668;2023-11-18T13:22:14;9.70;99.90
21602;DHT22;10963;50.934;4.668;2023-11-18T13:24:43;9.80;99.90
21602;DHT22;10963;50.934;4.668;2023-11-18T13:27:16;9.80;99.90
21602;DHT22;10963;50.934;4.668;2023-11-18T13:29:48;9.90;99.90
21602;DHT22;10963;50.934;4.668;2023-11-18T13:32:19;9.70;99.90
21602;DHT22;10963;50.934;4.668;2023-11-18T13:34:48;9.80;99.90
21602;DHT22;10963;50.934;4.668;2023-11-18T13:37:14;9.60;99.90
21602;DHT22;10963;50.934;4.668;2023-11-18T13:39:43;9.70;99.90
21602;DHT22;10963;50.934;4.668;2023-11-18T13:44:51;9.80;99.90
21602;DHT22;10963;50.934;4.668;2023-11-18T13:47:18;9.70;99.90
21602;DHT22;10963;50.934;4.668;2023-11-18T13:49:45;9.60;99.90
21602;DHT22;10963;50.934;4.668;2023-11-18T13:52:13;9.60;99.90
21602;DHT22;10963;50.934;4.668;2023-11-18T13:54:44;9.70;99.90
21602;DHT22;10963;50.934;4.668;2023-11-18T13:57:11;9.70;99.90
21602;DHT22;10963;50.934;4.668;2023-11-18T13:59:40;9.80;99.90
21602;DHT22;10963;50.934;4.668;2023-11-18T14:02:09;9.80;99.90
21602;DHT22;10963;50.934;4.668;2023-11-18T14:04:35;9.80;99.90
21602;DHT22;10963;50.934;4.668;2023-11-18T14:07:04;9.80;99.90
21602;DHT22;10963;50.934;4.668;2023-11-18T14:09:35;9.80;99.90
21602;DHT22;10963;50.934;4.668;2023-11-18T14:12:02;9.70;99.90
21602;DHT22;10963;50.934;4.668;2023-11-18T14:14:31;9.70;99.90
21602;DHT22;10963;50.934;4.668;2023-11-18T14:16:59;9.80;99.90
21602;DHT22;10963;50.934;4.668;2023-11-18T14:19:28;9.80;99.90
21602;DHT22;10963;50.934;4.668;2023-11-18T14:21:54;9.80;99.90
21602;DHT22;10963;50.934;4.668;2023-11-18T14:24:21;9.90;99.90
21602;DHT22;10963;50.934;4.668;2023-11-18T14:26:54;9.90;99.90
21602;DHT22;10963;50.934;4.668;2023-11-18T14:29:25;9.90;99.90
21602;DHT22;10963;50.934;4.668;2023-11-18T14:31:55;10.00;99.90
21602;DHT22;10963;50.934;4.668;2023-11-18T14:34:21;9.90;99.90
21602;DHT22;10963;50.934;4.668;2023-11-18T14:36:49;9.80;99.90
21602;DHT22;10963;50.934;4.668;2023-11-18T14:39:15;9.90;99.90
21602;DHT22;10963;50.934;4.668;2023-11-18T14:41:46;9.90;99.90
21602;DHT22;10963;50.934;4.668;2023-11-18T14:44:11;9.90;99.90
21602;DHT22;10963;50.934;4.668;2023-11-18T14:46:37;9.90;99.90
21602;DHT22;10963;50.934;4.668;2023-11-18T14:49:08;9.90;99.90
21602;DHT22;10963;50.934;4.668;2023-11-18T14:51:35;10.00;99.90
21602;DHT22;10963;50.934;4.668;2023-11-18T14:54:01;9.90;99.90
21602;DHT22;10963;50.934;4.668;2023-11-18T14:56:27;9.90;99.90
21602;DHT22;10963;50.934;4.668;2023-11-18T14:58:56;9.90;99.90
21602;DHT22;10963;50.934;4.668;2023-11-18T15:01:24;9.90;99.90
21602;DHT22;10963;50.934;4.668;2023-11-18T15:03:51;9.90;99.90
21602;DHT22;10963;50.934;4.668;2023-11-18T15:06:26;9.90;99.90
21602;DHT22;10963;50.934;4.668;2023-11-18T15:08:54;10.00;99.90
21602;DHT22;10963;50.934;4.668;2023-11-18T15:11:23;9.90;99.90
21602;DHT22;10963;50.934;4.668;2023-11-18T15:13:50;10.00;99.90
21602;DHT22;10963;50.934;4.668;2023-11-18T15:16:18;9.90;99.90
21602;DHT22;10963;50.934;4.668;2023-11-18T15:18:48;10.00;99.90
21602;DHT22;10963;50.934;4.668;2023-11-18T15:21:17;10.00;99.90
21602;DHT22;10963;50.934;4.668;2023-11-18T15:23:44;10.00;99.90
21602;DHT22;10963;50.934;4.668;2023-11-18T15:26:12;10.10;99.90
21602;DHT22;10963;50.934;4.668;2023-11-18T15:28:37;10.10;99.90
21602;DHT22;10963;50.934;4.668;2023-11-18T15:31:03;10.10;99.90
21602;DHT22;10963;50.934;4.668;2023-11-18T15:33:32;10.20;99.90
21602;DHT22;10963;50.934;4.668;2023-11-18T15:35:57;10.10;99.90
21602;DHT22;10963;50.934;4.668;2023-11-18T15:38:23;10.10;99.90
21602;DHT22;10963;50.934;4.668;2023-11-18T15:40:49;10.10;99.90
21602;DHT22;10963;50.934;4.668;2023-11-18T15:43:15;10.20;99.90
21602;DHT22;10963;50.934;4.668;2023-11-18T15:45:43;10.10;99.90
21602;DHT22;10963;50.934;4.668;2023-11-18T15:48:10;10.20;99.90
21602;DHT22;10963;50.934;4.668;2023-11-18T15:50:36;10.20;99.90
21602;DHT22;10963;50.934;4.668;2023-11-18T15:53:05;10.20;99.90
21602;DHT22;10963;50.934;4.668;2023-11-18T15:55:36;10.20;99.90
21602;DHT22;10963;50.934;4.668;2023-11-18T15:58:01;10.30;99.90
21602;DHT22;10963;50.934;4.668;2023-11-18T16:00:29;10.30;99.90
21602;DHT22;10963;50.934;4.668;2023-11-18T16:02:58;10.30;99.90
21602;DHT22;10963;50.934;4.668;2023-11-18T16:05:26;10.30;99.90
21602;DHT22;10963;50.934;4.668;2023-11-18T16:07:53;10.20;99.90
21602;DHT22;10963;50.934;4.668;2023-11-18T16:10:20;10.30;99.90
21602;DHT22;10963;50.934;4.668;2023-11-18T16:13:00;10.20;99.90
21602;DHT22;10963;50.934;4.668;2023-11-18T16:15:33;10.20;99.90
21602;DHT22;10963;50.934;4.668;2023-11-18T16:17:59;10.20;99.90
21602;DHT22;10963;50.934;4.668;2023-11-18T16:20:29;10.30;99.90
21602;DHT22;10963;50.934;4.668;2023-11-18T16:23:01;10.40;99.90
21602;DHT22;10963;50.934;4.668;2023-11-18T16:25:30;10.40;99.90
21602;DHT22;10963;50.934;4.668;2023-11-18T16:27:59;10.30;99.90
21602;DHT22;10963;50.934;4.668;2023-11-18T16:30:29;10.40;99.90
21602;DHT22;10963;50.934;4.668;2023-11-18T16:32:56;10.50;99.90
21602;DHT22;10963;50.934;4.668;2023-11-18T16:35:23;10.60;99.90
21602;DHT22;10963;50.934;4.668;2023-11-18T16:37:50;10.50;99.90
21602;DHT22;10963;50.934;4.668;2023-11-18T16:40:17;10.60;99.90
21602;DHT22;10963;50.934;4.668;2023-11-18T16:42:50;10.70;99.90